createdAt,value
2023-02-23T00:01:29.510Z,7.22
2023-02-23T00:04:00.272Z,7.21
2023-02-23T00:06:32.590Z,7.18
2023-02-23T00:09:02.237Z,7.11
2023-02-23T00:11:33.468Z,7.15
2023-02-23T00:14:03.454Z,7.14
2023-02-23T00:16:32.588Z,7.10
2023-02-23T00:19:02.465Z,7.07
2023-02-23T00:21:35.044Z,7.08
2023-02-23T00:24:06.400Z,7.07
2023-02-23T00:26:37.452Z,7.16
2023-02-23T00:29:10.418Z,7.09
2023-02-23T00:31:39.679Z,7.04
2023-02-23T00:34:08.888Z,7.11
2023-02-23T00:36:39.795Z,7.13
2023-02-23T00:39:18.962Z,7.06
2023-02-23T00:41:48.623Z,6.98
2023-02-23T00:44:17.764Z,6.98
2023-02-23T00:46:49.404Z,6.99
2023-02-23T00:49:19.332Z,7.00
2023-02-23T00:51:50.084Z,7.06
2023-02-23T00:54:19.760Z,7.07
2023-02-23T00:56:49.802Z,7.03
2023-02-23T00:59:20.028Z,7.01
2023-02-23T01:01:49.434Z,7.08
2023-02-23T01:04:24.018Z,6.93
2023-02-23T01:06:54.532Z,6.90
2023-02-23T01:09:28.168Z,7.00
2023-02-23T01:12:01.457Z,7.01
2023-02-23T01:14:31.428Z,6.97
2023-02-23T01:17:00.915Z,6.97
2023-02-23T01:19:33.972Z,6.91
2023-02-23T01:22:05.756Z,6.97
2023-02-23T01:24:34.911Z,6.94
2023-02-23T01:27:06.658Z,6.96
2023-02-23T01:29:36.444Z,6.94
2023-02-23T01:32:05.959Z,6.91
2023-02-23T01:34:35.066Z,6.92
2023-02-23T01:37:05.496Z,6.97
2023-02-23T01:39:34.872Z,6.94
2023-02-23T01:42:05.610Z,6.98
2023-02-23T01:45:18.993Z,7.00
2023-02-23T01:47:49.250Z,7.00
2023-02-23T01:50:19.848Z,7.06
2023-02-23T01:52:52.717Z,7.02
2023-02-23T01:55:25.744Z,6.94
2023-02-23T01:58:02.155Z,6.92
2023-02-23T02:00:36.447Z,6.90
2023-02-23T02:03:12.088Z,7.01
2023-02-23T02:05:41.854Z,6.95
2023-02-23T02:08:13.488Z,6.95
2023-02-23T02:10:46.556Z,6.97
2023-02-23T02:13:23.063Z,6.99
2023-02-23T02:16:21.847Z,7.00
2023-02-23T02:19:08.810Z,6.99
2023-02-23T02:21:51.990Z,6.94
2023-02-23T02:24:54.849Z,6.95
2023-02-23T02:27:43.423Z,7.06
2023-02-23T02:30:44.582Z,6.99
2023-02-23T02:33:37.885Z,6.98
2023-02-23T02:36:28.242Z,6.99
2023-02-23T02:39:10.520Z,6.99
2023-02-23T02:41:51.281Z,6.99
2023-02-23T02:44:28.283Z,7.01
2023-02-23T02:47:02.062Z,7.00
2023-02-23T02:49:36.780Z,7.01
2023-02-23T02:52:14.805Z,7.00
2023-02-23T02:54:53.166Z,7.02
2023-02-23T02:57:26.021Z,7.00
2023-02-23T03:00:12.687Z,6.99
2023-02-23T03:03:00.045Z,7.00
2023-02-23T03:05:51.984Z,7.05
2023-02-23T03:08:44.459Z,7.05
2023-02-23T03:11:33.635Z,7.01
2023-02-23T03:14:36.476Z,7.03
2023-02-23T03:17:32.425Z,7.08
2023-02-23T03:20:29.019Z,7.11
2023-02-23T03:23:24.722Z,7.13
2023-02-23T03:26:20.731Z,7.16
2023-02-23T03:29:15.754Z,7.16
2023-02-23T03:32:09.895Z,7.18
2023-02-23T03:35:00.508Z,7.18
2023-02-23T03:37:52.762Z,7.21
2023-02-23T03:40:42.124Z,7.23
2023-02-23T03:43:45.381Z,7.26
2023-02-23T03:46:36.605Z,7.14
2023-02-23T03:49:28.981Z,7.15
2023-02-23T03:52:22.324Z,7.16
2023-02-23T03:55:15.207Z,7.37
2023-02-23T03:58:05.555Z,7.38
2023-02-23T04:00:58.601Z,7.30
2023-02-23T04:03:49.481Z,7.35
2023-02-23T04:06:40.178Z,7.41
2023-02-23T04:09:27.326Z,7.46
2023-02-23T04:12:21.493Z,7.28
2023-02-23T04:14:56.105Z,7.32
2023-02-23T04:17:33.250Z,7.35
2023-02-23T04:20:04.795Z,7.39
2023-02-23T04:22:35.445Z,7.46
2023-02-23T04:25:05.967Z,7.54
2023-02-23T04:27:35.079Z,7.52
2023-02-23T04:30:04.517Z,7.47
2023-02-23T04:32:34.067Z,7.44
2023-02-23T04:35:05.064Z,7.47
2023-02-23T04:37:34.187Z,7.50
2023-02-23T04:40:03.403Z,7.47
2023-02-23T04:42:32.446Z,7.54
2023-02-23T04:45:01.540Z,7.48
2023-02-23T04:47:30.610Z,7.43
2023-02-23T04:49:59.649Z,7.45
2023-02-23T04:52:30.109Z,7.33
2023-02-23T04:54:59.160Z,7.47
2023-02-23T04:57:28.959Z,7.50
2023-02-23T04:59:58.293Z,7.55
2023-02-23T05:02:27.562Z,7.52
2023-02-23T05:04:56.638Z,7.49
2023-02-23T05:07:25.825Z,7.47
2023-02-23T05:09:56.252Z,7.46
2023-02-23T05:12:25.455Z,7.59
2023-02-23T05:14:54.600Z,7.58
2023-02-23T05:17:23.645Z,7.62
2023-02-23T05:19:53.428Z,7.53
2023-02-23T05:22:22.649Z,7.53
2023-02-23T05:24:51.839Z,7.50
2023-02-23T05:27:22.323Z,7.59
2023-02-23T05:29:51.850Z,7.55
2023-02-23T05:32:22.016Z,7.59
2023-02-23T05:34:51.265Z,7.59
2023-02-23T05:37:20.392Z,7.53
2023-02-23T05:39:49.440Z,7.54
2023-02-23T05:42:18.824Z,7.54
2023-02-23T05:44:49.510Z,7.55
2023-02-23T05:47:18.601Z,7.61
2023-02-23T05:49:47.991Z,7.61
2023-02-23T05:52:17.026Z,7.64
2023-02-23T05:54:46.713Z,7.64
2023-02-23T05:57:15.981Z,7.61
2023-02-23T05:59:45.145Z,7.68
2023-02-23T06:02:15.575Z,7.62
2023-02-23T06:04:44.850Z,7.57
2023-02-23T06:07:14.220Z,7.51
2023-02-23T06:09:44.593Z,7.54
2023-02-23T06:12:13.749Z,7.52
2023-02-23T06:14:42.813Z,7.49
2023-02-23T06:17:11.929Z,7.55
2023-02-23T06:19:42.382Z,7.56
2023-02-23T06:22:11.446Z,7.53
2023-02-23T06:24:40.593Z,7.53
2023-02-23T06:27:09.629Z,7.61
2023-02-23T06:29:38.689Z,7.51
2023-02-23T06:32:08.175Z,7.57
2023-02-23T06:34:38.231Z,7.56
2023-02-23T06:37:09.669Z,7.58
2023-02-23T06:39:39.648Z,7.52
2023-02-23T06:42:08.733Z,7.55
2023-02-23T06:44:37.834Z,7.62
2023-02-23T06:47:07.113Z,7.64
2023-02-23T06:49:37.025Z,7.75
2023-02-23T06:52:06.202Z,7.79
2023-02-23T06:54:37.799Z,7.73
2023-02-23T06:57:06.978Z,7.80
2023-02-23T06:59:36.558Z,7.72
2023-02-23T07:02:05.921Z,7.69
2023-02-23T07:04:35.106Z,7.61
2023-02-23T07:07:05.015Z,7.74
2023-02-23T07:09:35.457Z,7.71
2023-02-23T07:12:05.293Z,7.68
2023-02-23T07:14:34.502Z,7.62
2023-02-23T07:17:04.227Z,7.64
2023-02-23T07:19:33.572Z,7.61
2023-02-23T07:22:02.839Z,7.69
2023-02-23T07:24:32.339Z,7.68
2023-02-23T07:27:02.851Z,7.78
2023-02-23T07:29:31.923Z,7.75
2023-02-23T07:32:01.130Z,7.68
2023-02-23T07:34:30.278Z,7.70
2023-02-23T07:36:59.315Z,7.80
2023-02-23T07:39:28.580Z,7.57
2023-02-23T07:41:57.615Z,7.71
2023-02-23T07:44:28.100Z,7.86
2023-02-23T07:46:57.605Z,7.69
2023-02-23T07:49:26.676Z,7.71
2023-02-23T07:51:55.715Z,7.80
2023-02-23T07:54:25.415Z,7.78
2023-02-23T07:56:54.636Z,7.70
2023-02-23T07:59:23.692Z,7.74
2023-02-23T08:01:54.184Z,7.62
2023-02-23T08:04:23.265Z,7.66
2023-02-23T08:06:52.464Z,7.74
2023-02-23T08:09:21.558Z,7.80
2023-02-23T08:11:50.604Z,7.65
2023-02-23T08:14:23.530Z,7.79
2023-02-23T08:16:53.963Z,7.71
2023-02-23T08:19:23.203Z,7.61
2023-02-23T08:21:53.475Z,7.70
2023-02-23T08:24:22.518Z,7.82
2023-02-23T08:26:51.629Z,7.70
2023-02-23T08:29:21.319Z,7.80
2023-02-23T08:31:51.539Z,7.77
2023-02-23T08:34:23.101Z,7.86
2023-02-23T08:36:53.832Z,7.79
2023-02-23T08:39:23.229Z,7.73
2023-02-23T08:41:55.484Z,7.90
2023-02-23T08:44:24.607Z,8.03
2023-02-23T08:46:55.294Z,7.92
2023-02-23T08:49:26.128Z,7.95
2023-02-23T08:51:55.176Z,7.91
2023-02-23T08:54:24.248Z,7.90
2023-02-23T08:56:56.336Z,7.88
2023-02-23T08:59:25.654Z,7.95
2023-02-23T09:01:54.787Z,7.95
2023-02-23T09:04:25.248Z,7.85
2023-02-23T09:06:54.641Z,7.89
2023-02-23T09:09:23.700Z,8.07
2023-02-23T09:11:53.546Z,8.20
2023-02-23T09:14:22.770Z,8.02
2023-02-23T09:16:51.858Z,7.86
2023-02-23T09:19:21.172Z,8.04
2023-02-23T09:21:51.659Z,7.96
2023-02-23T09:24:22.051Z,7.91
2023-02-23T09:26:53.461Z,7.92
2023-02-23T09:29:23.061Z,7.80
2023-02-23T09:31:53.057Z,7.79
2023-02-23T09:34:22.253Z,7.70
2023-02-23T09:36:55.604Z,7.61
2023-02-23T09:39:37.237Z,7.38
2023-02-23T09:42:35.171Z,7.51
2023-02-23T09:45:27.160Z,7.35
2023-02-23T09:48:11.578Z,7.21
2023-02-23T09:50:43.426Z,7.26
2023-02-23T09:53:26.357Z,7.10
2023-02-23T09:55:57.336Z,7.26
2023-02-23T09:58:28.423Z,7.10
2023-02-23T10:01:22.994Z,7.26
2023-02-23T10:03:56.483Z,7.53
2023-02-23T10:06:25.734Z,7.51
2023-02-23T10:09:09.818Z,7.39
2023-02-23T10:11:46.793Z,7.45
2023-02-23T10:14:30.627Z,7.50
2023-02-23T10:17:16.887Z,7.54
2023-02-23T10:19:52.107Z,7.61
2023-02-23T10:22:22.671Z,7.43
2023-02-23T10:24:58.267Z,7.42
2023-02-23T10:27:43.400Z,7.46
2023-02-23T10:30:22.142Z,7.48
2023-02-23T10:32:57.485Z,7.47
2023-02-23T10:35:29.818Z,7.54
2023-02-23T10:38:01.010Z,7.46
2023-02-23T10:40:34.222Z,7.32
2023-02-23T10:43:06.816Z,7.55
2023-02-23T10:45:42.220Z,7.47
2023-02-23T10:48:18.256Z,7.38
2023-02-23T10:50:50.035Z,7.42
2023-02-23T10:53:24.345Z,7.32
2023-02-23T10:56:07.745Z,7.54
2023-02-23T10:58:46.385Z,7.75
2023-02-23T11:01:18.980Z,7.90
2023-02-23T11:03:57.691Z,7.95
2023-02-23T11:06:39.427Z,7.96
2023-02-23T11:09:41.900Z,7.74
2023-02-23T11:12:22.778Z,7.71
2023-02-23T11:14:53.841Z,7.62
2023-02-23T11:17:32.846Z,7.67
2023-02-23T11:20:04.807Z,7.75
2023-02-23T11:22:37.200Z,7.66
2023-02-23T11:25:21.950Z,7.61
2023-02-23T11:27:54.201Z,7.81
2023-02-23T11:30:29.425Z,7.88
2023-02-23T11:33:09.495Z,7.58
2023-02-23T11:35:39.193Z,8.00
2023-02-23T11:38:23.739Z,7.86
2023-02-23T11:41:01.883Z,7.84
2023-02-23T11:43:32.685Z,7.92
2023-02-23T11:46:03.464Z,7.90
2023-02-23T11:48:35.371Z,8.31
2023-02-23T11:51:05.130Z,8.14
2023-02-23T11:53:38.463Z,8.36
2023-02-23T11:56:12.385Z,8.19
2023-02-23T11:58:47.393Z,8.05
2023-02-23T12:01:18.810Z,8.00
2023-02-23T12:03:51.408Z,8.04
2023-02-23T12:06:32.527Z,8.23
2023-02-23T12:09:07.783Z,7.96
2023-02-23T12:11:45.121Z,7.97
2023-02-23T12:14:26.985Z,7.95
2023-02-23T12:17:05.152Z,7.86
2023-02-23T12:19:38.984Z,7.85
2023-02-23T12:22:13.254Z,8.14
2023-02-23T12:24:50.816Z,8.13
2023-02-23T12:27:24.127Z,8.13
2023-02-23T12:30:08.439Z,8.21
2023-02-23T12:32:46.754Z,8.07
2023-02-23T12:35:21.118Z,8.15
2023-02-23T12:37:54.078Z,8.01
2023-02-23T12:40:28.282Z,8.03
2023-02-23T12:43:03.401Z,7.98
2023-02-23T12:45:41.952Z,8.25
2023-02-23T12:48:19.974Z,8.43
2023-02-23T12:50:54.172Z,8.41
2023-02-23T12:53:27.130Z,8.29
2023-02-23T12:56:21.907Z,8.22
2023-02-23T12:58:59.250Z,8.27
2023-02-23T13:01:33.963Z,8.18
2023-02-23T13:04:25.004Z,8.13
2023-02-23T13:07:05.327Z,8.25
2023-02-23T13:09:54.735Z,8.19
2023-02-23T13:12:49.279Z,8.22
2023-02-23T13:15:26.969Z,8.14
2023-02-23T13:18:03.508Z,8.15
2023-02-23T13:20:38.401Z,8.10
2023-02-23T13:23:18.888Z,8.40
2023-02-23T13:25:55.534Z,8.25
2023-02-23T13:28:41.747Z,8.43
2023-02-23T13:31:23.534Z,8.38
2023-02-23T13:33:56.997Z,8.27
2023-02-23T13:36:29.412Z,8.24
2023-02-23T13:39:37.394Z,8.27
2023-02-23T13:42:37.553Z,8.52
2023-02-23T13:45:25.628Z,8.36
2023-02-23T13:47:58.286Z,8.36
2023-02-23T13:50:37.647Z,8.32
2023-02-23T13:53:09.170Z,8.35
2023-02-23T13:55:50.362Z,8.40
2023-02-23T13:58:24.712Z,8.26
2023-02-23T14:01:06.236Z,8.29
2023-02-23T14:03:47.263Z,8.38
2023-02-23T14:06:20.974Z,8.22
2023-02-23T14:08:56.896Z,8.31
2023-02-23T14:11:43.745Z,8.38
2023-02-23T14:14:37.251Z,8.21
2023-02-23T14:17:42.287Z,8.26
2023-02-23T14:20:30.026Z,8.34
2023-02-23T14:23:50.792Z,8.31
2023-02-23T14:26:58.557Z,8.33
2023-02-23T14:29:31.843Z,8.30
2023-02-23T14:32:04.621Z,8.35
2023-02-23T14:34:52.006Z,8.30
2023-02-23T14:37:32.308Z,8.31
2023-02-23T14:40:15.723Z,8.47
2023-02-23T14:42:50.461Z,8.31
2023-02-23T14:45:27.172Z,8.44
2023-02-23T14:47:59.854Z,8.22
2023-02-23T14:50:31.354Z,8.44
2023-02-23T14:53:02.222Z,8.32
2023-02-23T14:55:35.369Z,8.44
2023-02-23T14:58:05.076Z,8.44
2023-02-23T15:00:42.245Z,8.45
2023-02-23T15:03:13.625Z,8.38
2023-02-23T15:05:45.648Z,8.29
2023-02-23T15:08:18.147Z,8.47
2023-02-23T15:10:50.858Z,8.58
2023-02-23T15:13:29.312Z,8.55
2023-02-23T15:16:02.300Z,8.30
2023-02-23T15:18:34.954Z,8.31
2023-02-23T15:21:10.354Z,8.37
2023-02-23T15:23:39.818Z,8.33
2023-02-23T15:26:24.345Z,8.26
2023-02-23T15:28:54.096Z,8.27
2023-02-23T15:31:23.461Z,8.24
2023-02-23T15:33:55.676Z,8.10
2023-02-23T15:36:30.742Z,8.19
2023-02-23T15:39:05.080Z,8.29
2023-02-23T15:41:37.305Z,8.05
2023-02-23T15:44:12.960Z,8.12
2023-02-23T15:46:45.660Z,8.03
2023-02-23T15:49:19.292Z,7.97
2023-02-23T15:51:51.173Z,7.97
2023-02-23T15:54:23.732Z,7.99
2023-02-23T15:57:02.066Z,7.97
2023-02-23T15:59:35.938Z,8.00
2023-02-23T16:02:14.712Z,7.91
2023-02-23T16:04:48.964Z,7.82
2023-02-23T16:07:20.444Z,7.88
2023-02-23T16:09:53.078Z,7.87
2023-02-23T16:12:32.248Z,7.65
2023-02-23T16:15:04.006Z,7.69
2023-02-23T16:17:41.080Z,7.60
2023-02-23T16:20:18.837Z,7.62
2023-02-23T16:22:54.870Z,7.62
2023-02-23T16:25:28.094Z,7.48
2023-02-23T16:28:03.787Z,7.53
2023-02-23T16:30:43.106Z,7.10
2023-02-23T16:33:22.302Z,6.92
2023-02-23T16:35:53.373Z,6.95
2023-02-23T16:38:28.537Z,6.98
2023-02-23T16:40:57.928Z,6.94
2023-02-23T16:43:32.788Z,6.95
2023-02-23T16:46:02.604Z,6.86
2023-02-23T16:48:32.013Z,6.87
2023-02-23T16:51:01.399Z,6.73
2023-02-23T16:53:30.813Z,6.74
2023-02-23T16:56:01.869Z,6.80
2023-02-23T16:58:36.143Z,6.71
2023-02-23T17:01:05.392Z,6.66
2023-02-23T17:03:43.798Z,6.56
2023-02-23T17:06:16.535Z,6.33
2023-02-23T17:08:57.222Z,6.40
2023-02-23T17:11:27.841Z,6.31
2023-02-23T17:13:58.264Z,6.27
2023-02-23T17:16:27.366Z,6.30
2023-02-23T17:18:59.507Z,6.23
2023-02-23T17:21:28.798Z,6.08
2023-02-23T17:24:02.692Z,6.23
2023-02-23T17:26:31.856Z,6.18
2023-02-23T17:29:02.278Z,6.07
2023-02-23T17:31:31.982Z,6.07
2023-02-23T17:34:01.428Z,6.10
2023-02-23T17:36:30.536Z,6.03
2023-02-23T17:39:00.093Z,6.08
2023-02-23T17:41:29.690Z,6.03
2023-02-23T17:43:58.934Z,6.10
2023-02-23T17:46:29.506Z,6.01
2023-02-23T17:48:58.665Z,5.94
2023-02-23T17:51:27.834Z,5.98
2023-02-23T17:53:56.906Z,5.89
2023-02-23T17:56:26.258Z,5.89
2023-02-23T17:58:55.320Z,5.87
2023-02-23T18:01:24.664Z,5.87
2023-02-23T18:03:58.396Z,5.92
2023-02-23T18:06:27.841Z,5.73
2023-02-23T18:08:57.382Z,5.68
2023-02-23T18:11:26.796Z,5.73
2023-02-23T18:13:56.182Z,5.73
2023-02-23T18:16:25.364Z,5.54
2023-02-23T18:18:57.559Z,5.47
2023-02-23T18:21:27.245Z,5.32
2023-02-23T18:23:56.492Z,5.27
2023-02-23T18:26:26.978Z,5.16
2023-02-23T18:28:56.928Z,5.10
2023-02-23T18:31:28.712Z,5.04
2023-02-23T18:34:01.378Z,5.01
2023-02-23T18:36:32.585Z,4.91
2023-02-23T18:39:02.461Z,4.87
2023-02-23T18:41:31.632Z,4.81
2023-02-23T18:44:02.035Z,4.69
2023-02-23T18:46:31.296Z,4.79
2023-02-23T18:49:02.152Z,4.70
2023-02-23T18:51:32.852Z,4.55
2023-02-23T18:54:03.452Z,4.54
2023-02-23T18:56:32.793Z,4.62
2023-02-23T18:59:02.358Z,4.53
2023-02-23T19:01:33.271Z,4.52
2023-02-23T19:04:05.665Z,4.41
2023-02-23T19:06:37.397Z,4.37
2023-02-23T19:09:09.671Z,4.31
2023-02-23T19:11:39.400Z,4.31
2023-02-23T19:14:11.546Z,4.41
2023-02-23T19:16:41.220Z,4.33
2023-02-23T19:19:12.021Z,4.36
2023-02-23T19:21:41.297Z,4.17
2023-02-23T19:24:10.615Z,4.24
2023-02-23T19:26:40.684Z,4.12
2023-02-23T19:29:09.780Z,4.19
2023-02-23T19:31:39.197Z,4.14
2023-02-23T19:34:08.787Z,4.02
2023-02-23T19:36:39.883Z,4.03
2023-02-23T19:39:15.592Z,4.03
2023-02-23T19:41:45.581Z,3.96
2023-02-23T19:44:14.676Z,3.90
2023-02-23T19:46:43.868Z,3.91
2023-02-23T19:49:13.258Z,3.89
2023-02-23T19:51:44.246Z,3.85
2023-02-23T19:54:13.584Z,3.91
2023-02-23T19:56:43.216Z,3.81
2023-02-23T19:59:12.806Z,3.86
2023-02-23T20:01:43.446Z,3.77
2023-02-23T20:04:12.681Z,3.71
2023-02-23T20:06:46.985Z,3.69
2023-02-23T20:09:16.557Z,3.85
2023-02-23T20:11:45.732Z,3.77
2023-02-23T20:14:15.482Z,3.83
2023-02-23T20:16:44.605Z,3.77
2023-02-23T20:19:13.729Z,3.75
2023-02-23T20:21:43.518Z,3.82
2023-02-23T20:24:14.197Z,3.91
2023-02-23T20:26:43.561Z,4.00
2023-02-23T20:29:17.947Z,3.94
2023-02-23T20:31:50.616Z,3.88
2023-02-23T20:34:24.030Z,3.92
2023-02-23T20:36:55.047Z,3.98
2023-02-23T20:39:27.064Z,3.90
2023-02-23T20:41:56.350Z,3.88
2023-02-23T20:44:26.132Z,4.05
2023-02-23T20:46:55.332Z,3.99
2023-02-23T20:49:25.464Z,4.03
2023-02-23T20:51:55.049Z,3.93
2023-02-23T20:54:25.560Z,3.96
2023-02-23T20:56:58.880Z,4.05
2023-02-23T20:59:30.745Z,4.13
2023-02-23T21:02:01.704Z,4.14
2023-02-23T21:04:30.834Z,4.16
2023-02-23T21:07:00.718Z,4.19
2023-02-23T21:09:32.892Z,4.10
2023-02-23T21:12:03.577Z,4.14
2023-02-23T21:14:34.528Z,4.16
2023-02-23T21:17:05.297Z,4.14
2023-02-23T21:19:36.286Z,4.16
2023-02-23T21:22:05.485Z,4.24
2023-02-23T21:24:41.303Z,4.26
2023-02-23T21:27:15.290Z,4.30
2023-02-23T21:29:45.819Z,4.35
2023-02-23T21:32:16.718Z,4.29
2023-02-23T21:34:46.540Z,4.34
2023-02-23T21:37:16.309Z,4.42
2023-02-23T21:39:47.326Z,4.39
2023-02-23T21:42:16.654Z,4.29
2023-02-23T21:44:45.717Z,4.36
2023-02-23T21:47:15.377Z,4.38
2023-02-23T21:49:49.065Z,4.36
2023-02-23T21:52:18.337Z,4.35
2023-02-23T21:54:51.799Z,4.39
2023-02-23T21:57:22.716Z,4.45
2023-02-23T21:59:51.848Z,4.43
2023-02-23T22:02:21.214Z,4.40
2023-02-23T22:04:51.433Z,4.41
2023-02-23T22:07:21.733Z,4.47
2023-02-23T22:09:52.599Z,4.45
2023-02-23T22:12:21.792Z,4.49
2023-02-23T22:14:51.214Z,4.46
2023-02-23T22:17:20.456Z,4.52
2023-02-23T22:19:54.590Z,4.51
2023-02-23T22:22:23.864Z,4.48
2023-02-23T22:24:54.421Z,4.46
2023-02-23T22:27:23.615Z,4.46
2023-02-23T22:29:54.049Z,4.50
2023-02-23T22:32:23.277Z,4.59
2023-02-23T22:34:52.624Z,4.54
2023-02-23T22:37:29.979Z,4.55
2023-02-23T22:40:02.366Z,4.53
2023-02-23T22:42:35.304Z,4.57
2023-02-23T22:45:06.131Z,4.48
2023-02-23T22:47:35.781Z,4.42
2023-02-23T22:50:06.851Z,4.38
2023-02-23T22:52:36.210Z,4.41
2023-02-23T22:55:07.914Z,4.23
2023-02-23T22:57:37.328Z,4.24
2023-02-23T23:00:10.910Z,4.25
2023-02-23T23:02:40.551Z,4.27
2023-02-23T23:05:13.198Z,4.22
2023-02-23T23:07:42.409Z,4.30
2023-02-23T23:10:14.580Z,4.25
2023-02-23T23:12:44.392Z,4.22
2023-02-23T23:15:17.465Z,4.20
2023-02-23T23:17:49.133Z,4.17
2023-02-23T23:20:25.434Z,4.23
2023-02-23T23:22:57.006Z,4.20
2023-02-23T23:25:29.507Z,4.17
2023-02-23T23:27:58.570Z,4.12
2023-02-23T23:30:29.367Z,4.21
2023-02-23T23:32:59.907Z,4.15
2023-02-23T23:35:29.301Z,4.14
2023-02-23T23:38:01.588Z,4.12
2023-02-23T23:40:35.672Z,4.12
2023-02-23T23:43:07.478Z,4.17
2023-02-23T23:45:40.348Z,3.97
2023-02-23T23:48:09.555Z,4.03
2023-02-23T23:50:39.534Z,4.05
2023-02-23T23:53:08.629Z,4.07
2023-02-23T23:55:39.017Z,4.07
2023-02-23T23:58:08.309Z,4.02
